createdAt,value
2023-02-17T00:02:32.060Z,100937.22
2023-02-17T00:07:35.256Z,100927.22
2023-02-17T00:12:39.368Z,100928.25
2023-02-17T00:17:42.131Z,100930.97
2023-02-17T00:22:44.860Z,100919.56
2023-02-17T00:27:48.901Z,100908.13
2023-02-17T00:32:51.600Z,100905.31
2023-02-17T00:37:55.575Z,100911.56
2023-02-17T00:42:59.586Z,100922.34
2023-02-17T00:48:02.294Z,100923.50
2023-02-17T00:53:05.030Z,100926.94
2023-02-17T00:58:10.406Z,100928.75
2023-02-17T01:03:13.098Z,100947.81
2023-02-17T01:08:17.260Z,100960.38
2023-02-17T01:13:21.808Z,100951.50
2023-02-17T01:18:25.571Z,100967.81
2023-02-17T01:23:28.242Z,100958.53
2023-02-17T01:28:32.501Z,100949.66
2023-02-17T01:33:35.210Z,100953.84
2023-02-17T01:38:38.538Z,100955.00
2023-02-17T01:43:42.702Z,100910.53
2023-02-17T01:48:48.370Z,100906.78
2023-02-17T01:53:55.711Z,100899.94
2023-02-17T01:59:04.764Z,100905.50
2023-02-17T02:04:07.986Z,100903.78
2023-02-17T02:09:13.878Z,100898.78
2023-02-17T02:14:18.984Z,100896.88
2023-02-17T02:19:50.002Z,100893.72
2023-02-17T02:25:00.760Z,100894.91
2023-02-17T02:30:18.537Z,100886.78
2023-02-17T02:35:29.154Z,100865.56
2023-02-17T02:40:35.525Z,100847.97
2023-02-17T02:45:38.338Z,100806.59
2023-02-17T02:50:55.173Z,100769.44
2023-02-17T02:56:05.760Z,100716.44
2023-02-17T03:01:14.129Z,100711.00
2023-02-17T03:06:22.530Z,100696.16
2023-02-17T03:11:33.182Z,100646.06
2023-02-17T03:16:41.608Z,100554.09
2023-02-17T03:21:49.798Z,100556.88
2023-02-17T03:26:52.905Z,100552.44
2023-02-17T03:31:55.778Z,100564.75
2023-02-17T03:36:59.922Z,100555.44
2023-02-17T03:42:02.944Z,100551.84
2023-02-17T03:47:05.687Z,100576.31
2023-02-17T03:52:09.750Z,100588.13
2023-02-17T03:57:12.441Z,100604.75
2023-02-17T04:02:15.184Z,100613.75
2023-02-17T04:07:19.219Z,100581.44
2023-02-17T04:12:23.005Z,100551.63
2023-02-17T04:17:25.702Z,100508.00
2023-02-17T04:22:29.702Z,100507.09
2023-02-17T04:27:32.383Z,100494.06
2023-02-17T04:32:35.067Z,100507.09
2023-02-17T04:37:39.082Z,100516.97
2023-02-17T04:42:41.736Z,100517.19
2023-02-17T04:47:44.411Z,100525.00
2023-02-17T04:52:48.485Z,100534.38
2023-02-17T04:57:51.181Z,100532.16
2023-02-17T05:02:54.021Z,100540.03
2023-02-17T05:07:58.111Z,100528.63
2023-02-17T05:13:00.804Z,100521.38
2023-02-17T05:18:03.506Z,100507.78
2023-02-17T05:23:07.562Z,100497.28
2023-02-17T05:28:10.258Z,100512.50
2023-02-17T05:33:12.952Z,100508.31
2023-02-17T05:38:17.420Z,100501.97
2023-02-17T05:43:20.144Z,100519.09
2023-02-17T05:48:22.930Z,100516.53
2023-02-17T05:53:27.017Z,100511.47
2023-02-17T05:58:29.965Z,100510.19
2023-02-17T06:03:32.733Z,100501.91
2023-02-17T06:08:37.199Z,100496.06
2023-02-17T06:13:40.156Z,100510.50
2023-02-17T06:18:43.929Z,100497.59
2023-02-17T06:23:48.242Z,100502.41
2023-02-17T06:28:51.211Z,100497.75
2023-02-17T06:33:53.910Z,100525.59
2023-02-17T06:38:57.993Z,100505.72
2023-02-17T06:44:01.116Z,100528.09
2023-02-17T06:49:03.881Z,100700.56
2023-02-17T06:54:08.206Z,100736.75
2023-02-17T06:59:10.922Z,100729.75
2023-02-17T07:04:13.665Z,100738.00
2023-02-17T07:09:17.799Z,100727.06
2023-02-17T07:14:20.506Z,100745.00
2023-02-17T07:19:23.255Z,100751.72
2023-02-17T07:24:27.800Z,100730.72
2023-02-17T07:29:30.585Z,100733.63
2023-02-17T07:34:33.320Z,100736.91
2023-02-17T07:39:37.442Z,100738.94
2023-02-17T07:44:40.200Z,100723.00
2023-02-17T07:49:43.076Z,100725.72
2023-02-17T07:54:47.157Z,100713.22
2023-02-17T07:59:50.948Z,100730.66
2023-02-17T08:04:53.724Z,100725.94
2023-02-17T08:10:17.698Z,100727.59
2023-02-17T08:15:20.524Z,100723.13
2023-02-17T08:20:23.219Z,100724.34
2023-02-17T08:25:27.343Z,100746.78
2023-02-17T08:30:30.439Z,100737.22
2023-02-17T08:35:33.748Z,100740.00
2023-02-17T08:40:37.825Z,100722.47
2023-02-17T08:45:40.512Z,100728.88
2023-02-17T08:50:43.166Z,100722.94
2023-02-17T08:55:49.471Z,100709.97
2023-02-17T09:00:52.594Z,100720.56
2023-02-17T09:05:55.653Z,100737.44
2023-02-17T09:11:00.308Z,100759.13
2023-02-17T09:16:03.453Z,100773.38
2023-02-17T09:21:07.885Z,100763.72
2023-02-17T09:26:14.450Z,100781.72
2023-02-17T09:31:19.444Z,100769.44
2023-02-17T09:36:24.669Z,100786.28
2023-02-17T09:41:32.891Z,100800.81
2023-02-17T09:46:38.539Z,100789.38
2023-02-17T09:51:45.109Z,100806.63
2023-02-17T09:56:51.925Z,100809.38
2023-02-17T10:01:55.620Z,100840.72
2023-02-17T10:07:02.883Z,100835.72
2023-02-17T10:12:09.787Z,100852.03
2023-02-17T10:17:19.294Z,100837.31
2023-02-17T10:22:23.635Z,100837.69
2023-02-17T10:27:43.054Z,100839.44
2023-02-17T10:32:52.419Z,100838.13
2023-02-17T10:38:00.436Z,100830.47
2023-02-17T10:43:07.856Z,100829.53
2023-02-17T10:48:15.183Z,100841.38
2023-02-17T10:53:20.078Z,100815.88
2023-02-17T10:58:28.976Z,100782.63
2023-02-17T11:03:32.978Z,100769.72
2023-02-17T11:08:38.796Z,100774.34
2023-02-17T11:13:45.672Z,100765.94
2023-02-17T11:18:49.620Z,100813.13
2023-02-17T11:23:55.952Z,100802.19
2023-02-17T11:29:10.429Z,100808.25
2023-02-17T11:34:15.140Z,100826.31
2023-02-17T11:39:22.317Z,100804.72
2023-02-17T11:44:28.015Z,100795.22
2023-02-17T11:49:50.010Z,100775.06
2023-02-17T11:55:05.331Z,100755.25
2023-02-17T12:00:17.019Z,100741.25
2023-02-17T12:05:25.014Z,100744.41
2023-02-17T12:10:35.422Z,100705.91
2023-02-17T12:15:50.155Z,100688.69
2023-02-17T12:20:59.201Z,100682.84
2023-02-17T12:26:07.871Z,100678.69
2023-02-17T12:31:22.173Z,100662.53
2023-02-17T12:36:30.443Z,100646.31
2023-02-17T12:41:35.928Z,100646.16
2023-02-17T12:46:43.999Z,100637.56
2023-02-17T12:51:49.350Z,100645.50
2023-02-17T12:57:07.640Z,100640.13
2023-02-17T13:02:14.410Z,100627.72
2023-02-17T13:07:27.433Z,100639.88
2023-02-17T13:12:40.751Z,100624.56
2023-02-17T13:17:54.386Z,100629.53
2023-02-17T13:23:09.326Z,100618.94
2023-02-17T13:28:34.310Z,100623.16
2023-02-17T13:33:44.593Z,100631.91
2023-02-17T13:39:01.427Z,100649.34
2023-02-17T13:44:25.055Z,100681.00
2023-02-17T13:49:32.943Z,100668.34
2023-02-17T13:54:35.686Z,100685.13
2023-02-17T13:59:38.357Z,100705.28
2023-02-17T14:04:44.501Z,100699.38
2023-02-17T14:09:54.326Z,100714.81
2023-02-17T14:14:57.015Z,100701.56
2023-02-17T14:20:01.534Z,100696.66
2023-02-17T14:25:06.741Z,100697.16
2023-02-17T14:30:14.721Z,100701.41
2023-02-17T14:35:23.662Z,100711.81
2023-02-17T14:40:26.487Z,100726.50
2023-02-17T14:45:29.178Z,100727.25
2023-02-17T14:50:34.495Z,100742.72
2023-02-17T14:55:39.312Z,100736.06
2023-02-17T15:00:42.021Z,100749.81
2023-02-17T15:05:46.448Z,100762.44
2023-02-17T15:10:50.051Z,100793.13
2023-02-17T15:15:52.994Z,100801.88
2023-02-17T15:20:58.025Z,100818.47
2023-02-17T15:26:00.886Z,100844.59
2023-02-17T15:31:04.314Z,100857.94
2023-02-17T15:36:13.579Z,100890.69
2023-02-17T15:41:19.414Z,100912.75
2023-02-17T15:46:24.055Z,100925.06
2023-02-17T15:51:28.209Z,100940.28
2023-02-17T15:56:32.980Z,100965.13
2023-02-17T16:01:36.135Z,100948.09
2023-02-17T16:06:40.224Z,100954.19
2023-02-17T16:11:47.995Z,100943.59
2023-02-17T16:16:50.792Z,100964.16
2023-02-17T16:21:54.886Z,100967.38
2023-02-17T16:26:57.736Z,100979.53
2023-02-17T16:32:00.605Z,100994.91
2023-02-17T16:37:12.433Z,100999.94
2023-02-17T16:42:15.828Z,100992.72
2023-02-17T16:47:20.687Z,101012.09
2023-02-17T16:52:26.779Z,101020.91
2023-02-17T16:57:29.558Z,101015.34
2023-02-17T17:02:32.351Z,101034.91
2023-02-17T17:07:36.446Z,101030.19
2023-02-17T17:12:39.182Z,101032.97
2023-02-17T17:17:44.982Z,101038.75
2023-02-17T17:22:50.082Z,101047.13
2023-02-17T17:27:53.022Z,101055.72
2023-02-17T17:32:55.935Z,101038.16
2023-02-17T17:37:59.977Z,101040.72
2023-02-17T17:43:02.677Z,101047.75
2023-02-17T17:48:05.761Z,101044.28
2023-02-17T17:53:10.317Z,101043.25
2023-02-17T17:58:13.826Z,101026.94
2023-02-17T18:03:16.638Z,101008.22
2023-02-17T18:08:20.826Z,101028.41
2023-02-17T18:13:23.782Z,101029.44
2023-02-17T18:18:28.500Z,101021.81
2023-02-17T18:23:32.706Z,101010.03
2023-02-17T18:28:35.567Z,101022.78
2023-02-17T18:33:38.396Z,101019.09
2023-02-17T18:38:43.214Z,101032.13
2023-02-17T18:43:45.948Z,101036.25
2023-02-17T18:48:48.683Z,101027.69
2023-02-17T18:53:52.975Z,101015.09
2023-02-17T18:58:56.376Z,101014.03
2023-02-17T19:03:59.567Z,101020.63
2023-02-17T19:09:04.639Z,101015.00
2023-02-17T19:14:07.289Z,101028.03
2023-02-17T19:19:09.958Z,101033.69
2023-02-17T19:24:14.498Z,101037.06
2023-02-17T19:29:17.250Z,101022.75
2023-02-17T19:34:20.222Z,101028.31
2023-02-17T19:39:24.364Z,101039.34
2023-02-17T19:44:27.120Z,101033.44
2023-02-17T19:49:29.870Z,101030.84
2023-02-17T19:54:33.898Z,101063.97
2023-02-17T19:59:36.607Z,101071.19
2023-02-17T20:04:39.305Z,101107.16
2023-02-17T20:09:43.442Z,101116.59
2023-02-17T20:14:46.551Z,101115.38
2023-02-17T20:19:49.225Z,101127.91
2023-02-17T20:24:53.281Z,101131.66
2023-02-17T20:29:56.042Z,101144.44
2023-02-17T20:34:58.901Z,101130.94
2023-02-17T20:40:04.171Z,101135.56
2023-02-17T20:45:07.312Z,101062.91
2023-02-17T20:50:12.713Z,101064.38
2023-02-17T20:55:19.734Z,101075.16
2023-02-17T21:00:24.449Z,101069.63
2023-02-17T21:05:27.307Z,101072.88
2023-02-17T21:10:32.744Z,101069.25
2023-02-17T21:15:35.760Z,101074.53
2023-02-17T21:20:38.470Z,101069.09
2023-02-17T21:25:45.787Z,101074.53
2023-02-17T21:30:48.656Z,101072.72
2023-02-17T21:35:53.421Z,101071.81
2023-02-17T21:41:06.731Z,101072.72
2023-02-17T21:46:10.578Z,101079.34
2023-02-17T21:51:13.369Z,101079.25
2023-02-17T21:56:17.893Z,101077.44
2023-02-17T22:01:21.212Z,101077.44
2023-02-17T22:06:26.020Z,101071.44
2023-02-17T22:11:31.921Z,101080.97
2023-02-17T22:16:35.901Z,101071.06
2023-02-17T22:21:39.564Z,101071.56
2023-02-17T22:26:43.973Z,101067.22
2023-02-17T22:31:50.123Z,101076.91
2023-02-17T22:36:52.784Z,101071.28
2023-02-17T22:41:56.866Z,101055.50
2023-02-17T22:46:59.562Z,101043.78
2023-02-17T22:52:02.310Z,101038.28
2023-02-17T22:57:06.935Z,101043.72
2023-02-17T23:02:09.587Z,101033.22
2023-02-17T23:07:12.605Z,101030.94
2023-02-17T23:12:16.652Z,101029.88
2023-02-17T23:17:19.355Z,101021.16
2023-02-17T23:22:22.060Z,101026.69
2023-02-17T23:27:26.129Z,101017.56
2023-02-17T23:32:28.914Z,101021.16
2023-02-17T23:37:31.633Z,101028.06
2023-02-17T23:42:36.905Z,101032.34
2023-02-17T23:47:39.963Z,100988.63
2023-02-17T23:52:42.728Z,100978.94
2023-02-17T23:57:46.806Z,100982.09
